createdAt,value
2022-11-29T00:01:41.998Z,561.83
2022-11-29T00:04:11.709Z,742.40
2022-11-29T00:06:39.895Z,444.83
2022-11-29T00:09:11.754Z,231.60
2022-11-29T00:12:00.389Z,420.23
2022-11-29T00:14:29.266Z,496.10
2022-11-29T00:17:02.049Z,255.17
2022-11-29T00:19:33.059Z,535.23
2022-11-29T00:22:02.253Z,466.70
2022-11-29T00:24:32.252Z,564.13
2022-11-29T00:27:00.714Z,502.67
2022-11-29T00:29:30.133Z,334.43
2022-11-29T00:31:58.174Z,342.27
2022-11-29T00:34:26.009Z,422.40
2022-11-29T00:36:55.095Z,406.53
2022-11-29T00:39:22.945Z,496.23
2022-11-29T00:41:50.653Z,543.27
2022-11-29T00:44:20.620Z,405.60
2022-11-29T00:46:49.160Z,495.60
2022-11-29T00:49:17.222Z,465.13
2022-11-29T00:51:45.155Z,662.57
2022-11-29T00:54:14.725Z,719.43
2022-11-29T00:56:42.890Z,413.97
2022-11-29T00:59:10.700Z,400.97
2022-11-29T01:01:38.743Z,665.67
2022-11-29T01:04:06.986Z,388.80
2022-11-29T01:06:34.742Z,276.50
2022-11-29T01:09:02.519Z,425.23
2022-11-29T01:11:31.820Z,664.10
2022-11-29T01:14:02.460Z,580.27
2022-11-29T01:16:32.457Z,479.80
2022-11-29T01:19:00.622Z,529.27
2022-11-29T01:21:28.683Z,513.33
2022-11-29T01:23:56.831Z,441.30
2022-11-29T01:26:27.578Z,369.37
2022-11-29T01:28:58.958Z,500.57
2022-11-29T01:31:29.834Z,498.37
2022-11-29T01:34:00.920Z,505.07
2022-11-29T01:36:29.666Z,442.07
2022-11-29T01:39:00.607Z,412.83
2022-11-29T01:41:32.102Z,293.83
2022-11-29T01:44:06.936Z,263.37
2022-11-29T01:46:38.441Z,260.48
2022-11-29T01:49:13.124Z,266.23
2022-11-29T01:51:47.400Z,252.13
2022-11-29T01:54:15.424Z,177.37
2022-11-29T01:56:48.560Z,232.17
2022-11-29T01:59:22.486Z,227.30
2022-11-29T02:01:51.908Z,204.67
2022-11-29T02:04:20.154Z,226.93
2022-11-29T02:06:48.428Z,214.27
2022-11-29T02:09:19.648Z,205.73
2022-11-29T02:12:07.617Z,203.97
2022-11-29T02:14:58.642Z,178.93
2022-11-29T02:17:42.816Z,171.37
2022-11-29T02:20:52.577Z,172.93
2022-11-29T02:23:51.279Z,152.13
2022-11-29T02:26:52.506Z,140.03
2022-11-29T02:29:44.738Z,143.97
2022-11-29T02:32:58.888Z,130.73
2022-11-29T02:35:51.228Z,116.47
2022-11-29T02:38:40.166Z,142.23
2022-11-29T02:41:37.231Z,166.83
2022-11-29T02:44:39.121Z,146.93
2022-11-29T02:47:23.399Z,186.60
2022-11-29T02:50:17.472Z,183.20
2022-11-29T02:52:59.406Z,228.73
2022-11-29T02:55:38.129Z,251.37
2022-11-29T02:58:19.210Z,149.30
2022-11-29T03:01:02.937Z,213.40
2022-11-29T03:03:40.803Z,180.90
2022-11-29T03:06:23.761Z,170.00
2022-11-29T03:09:06.086Z,212.37
2022-11-29T03:11:43.512Z,177.13
2022-11-29T03:14:23.314Z,245.07
2022-11-29T03:17:07.268Z,340.03
2022-11-29T03:20:06.157Z,233.00
2022-11-29T03:22:46.900Z,199.77
2022-11-29T03:25:26.653Z,179.10
2022-11-29T03:28:04.801Z,199.33
2022-11-29T03:30:40.060Z,208.13
2022-11-29T03:33:15.971Z,200.00
2022-11-29T03:35:53.258Z,214.53
2022-11-29T03:38:32.871Z,157.10
2022-11-29T03:41:14.061Z,171.67
2022-11-29T03:43:50.248Z,144.00
2022-11-29T03:46:31.855Z,157.27
2022-11-29T03:49:07.443Z,151.87
2022-11-29T03:51:51.786Z,155.02
2022-11-29T03:54:28.597Z,158.67
2022-11-29T03:56:58.048Z,125.27
2022-11-29T03:59:52.055Z,166.70
2022-11-29T04:03:26.373Z,148.90
2022-11-29T04:06:20.507Z,133.40
2022-11-29T04:09:41.849Z,123.60
2022-11-29T04:13:00.796Z,146.70
2022-11-29T04:16:31.658Z,186.70
2022-11-29T04:19:32.346Z,133.77
2022-11-29T04:22:27.618Z,129.93
2022-11-29T04:25:39.714Z,144.20
2022-11-29T04:29:01.451Z,171.00
2022-11-29T04:31:54.043Z,160.37
2022-11-29T04:34:52.459Z,197.00
2022-11-29T04:37:54.206Z,165.87
2022-11-29T04:40:54.011Z,160.07
2022-11-29T04:43:48.529Z,184.77
2022-11-29T04:46:59.782Z,169.87
2022-11-29T04:50:05.518Z,141.00
2022-11-29T04:53:04.330Z,132.50
2022-11-29T04:55:45.536Z,215.70
2022-11-29T04:58:27.010Z,172.00
2022-11-29T05:01:06.861Z,164.67
2022-11-29T05:03:41.311Z,147.00
2022-11-29T05:06:23.338Z,138.13
2022-11-29T05:09:03.037Z,175.00
2022-11-29T05:11:50.033Z,139.33
2022-11-29T05:14:35.800Z,143.20
2022-11-29T05:17:31.905Z,129.68
2022-11-29T05:20:18.035Z,141.05
2022-11-29T05:25:43.328Z,115.57
2022-11-29T05:28:23.997Z,122.22
2022-11-29T05:31:21.352Z,119.63
2022-11-29T05:34:20.336Z,111.20
2022-11-29T05:37:02.099Z,110.60
2022-11-29T05:39:43.215Z,130.33
2022-11-29T05:42:42.432Z,126.77
2022-11-29T05:45:23.302Z,110.97
2022-11-29T05:48:01.998Z,118.30
2022-11-29T05:50:40.048Z,118.93
2022-11-29T05:53:21.346Z,124.90
2022-11-29T05:56:03.080Z,117.70
2022-11-29T05:58:49.989Z,104.23
2022-11-29T06:01:24.646Z,123.47
2022-11-29T06:04:01.862Z,127.43
2022-11-29T06:06:40.261Z,101.53
2022-11-29T06:09:18.859Z,126.13
2022-11-29T06:11:52.773Z,103.70
2022-11-29T06:14:51.541Z,106.73
2022-11-29T06:17:41.824Z,132.70
2022-11-29T06:20:36.049Z,131.20
2022-11-29T06:23:24.669Z,108.17
2022-11-29T06:26:12.947Z,92.60
2022-11-29T06:29:01.591Z,84.43
2022-11-29T06:31:38.296Z,90.03
2022-11-29T06:34:33.933Z,94.27
2022-11-29T06:37:16.494Z,78.87
2022-11-29T06:39:47.314Z,84.33
2022-11-29T06:42:15.097Z,81.87
2022-11-29T06:44:44.083Z,82.03
2022-11-29T06:47:23.612Z,94.73
2022-11-29T06:50:03.135Z,95.43
2022-11-29T06:52:46.142Z,93.70
2022-11-29T06:55:25.192Z,87.77
2022-11-29T06:58:10.266Z,89.37
2022-11-29T07:00:55.575Z,96.57
2022-11-29T07:03:43.254Z,102.55
2022-11-29T07:06:20.971Z,102.53
2022-11-29T07:08:53.856Z,90.50
2022-11-29T07:11:22.586Z,87.77
2022-11-29T07:13:51.058Z,91.73
2022-11-29T07:16:28.959Z,89.83
2022-11-29T07:19:13.138Z,105.03
2022-11-29T07:21:55.209Z,104.20
2022-11-29T07:24:44.677Z,103.10
2022-11-29T07:27:21.047Z,100.33
2022-11-29T07:30:10.008Z,102.67
2022-11-29T07:33:00.033Z,93.00
2022-11-29T07:35:38.539Z,109.57
2022-11-29T07:38:18.360Z,109.43
2022-11-29T07:40:59.141Z,111.07
2022-11-29T07:43:47.682Z,117.90
2022-11-29T07:46:15.462Z,105.53
2022-11-29T07:48:43.207Z,111.10
2022-11-29T07:51:11.176Z,117.03
2022-11-29T07:53:43.940Z,114.53
2022-11-29T07:56:12.503Z,126.23
2022-11-29T07:58:40.196Z,109.17
2022-11-29T08:01:08.652Z,108.90
2022-11-29T08:03:36.472Z,121.50
2022-11-29T08:06:04.207Z,125.93
2022-11-29T08:08:32.017Z,107.97
2022-11-29T08:11:01.038Z,122.53
2022-11-29T08:13:28.783Z,120.10
2022-11-29T08:15:56.539Z,112.20
2022-11-29T08:18:24.361Z,117.77
2022-11-29T08:20:52.069Z,119.40
2022-11-29T08:23:19.862Z,128.07
2022-11-29T08:25:48.441Z,109.17
2022-11-29T08:28:17.543Z,100.87
2022-11-29T08:30:45.245Z,115.37
2022-11-29T08:33:13.052Z,121.33
2022-11-29T08:35:42.095Z,113.87
2022-11-29T08:38:09.887Z,120.77
2022-11-29T08:40:37.689Z,109.30
2022-11-29T08:43:05.413Z,120.10
2022-11-29T08:45:34.525Z,119.67
2022-11-29T08:48:02.314Z,124.83
2022-11-29T08:50:30.110Z,118.23
2022-11-29T08:53:17.344Z,127.97
2022-11-29T08:55:46.502Z,121.87
2022-11-29T08:58:15.969Z,125.43
2022-11-29T09:00:46.993Z,131.07
2022-11-29T09:03:33.263Z,142.07
2022-11-29T09:08:43.449Z,129.50
2022-11-29T09:11:14.433Z,140.63
2022-11-29T09:13:44.823Z,146.13
2022-11-29T09:16:18.164Z,136.67
2022-11-29T09:18:51.962Z,137.90
2022-11-29T09:21:20.053Z,126.27
2022-11-29T09:23:47.807Z,145.43
2022-11-29T09:26:18.826Z,154.07
2022-11-29T09:28:46.776Z,167.13
2022-11-29T09:31:16.986Z,186.97
2022-11-29T09:33:45.553Z,164.17
2022-11-29T09:36:13.904Z,207.67
2022-11-29T09:38:42.030Z,232.57
2022-11-29T09:41:38.734Z,207.80
2022-11-29T09:44:22.182Z,285.30
2022-11-29T09:47:04.122Z,228.20
2022-11-29T09:49:55.146Z,231.60
2022-11-29T09:52:40.736Z,288.10
2022-11-29T09:55:35.324Z,274.33
2022-11-29T09:58:09.483Z,285.40
2022-11-29T10:00:48.570Z,295.53
2022-11-29T10:03:27.443Z,198.87
2022-11-29T10:06:01.661Z,147.70
2022-11-29T10:08:36.731Z,113.80
2022-11-29T10:11:20.929Z,94.25
2022-11-29T10:13:57.197Z,150.90
2022-11-29T10:16:39.456Z,91.80
2022-11-29T10:19:20.114Z,92.70
2022-11-29T10:22:02.720Z,111.43
2022-11-29T10:24:33.379Z,98.73
2022-11-29T10:27:01.656Z,111.77
2022-11-29T10:29:29.415Z,134.03
2022-11-29T10:31:59.247Z,171.33
2022-11-29T10:34:31.299Z,208.37
2022-11-29T10:37:02.266Z,112.57
2022-11-29T10:39:37.161Z,93.57
2022-11-29T10:42:32.937Z,99.03
2022-11-29T10:45:02.891Z,64.25
2022-11-29T10:47:32.141Z,65.23
2022-11-29T10:50:01.322Z,73.47
2022-11-29T10:52:29.045Z,102.40
2022-11-29T10:55:00.045Z,72.87
2022-11-29T10:57:27.924Z,69.67
2022-11-29T11:00:01.894Z,86.30
2022-11-29T11:02:31.102Z,92.87
2022-11-29T11:05:01.478Z,106.03
2022-11-29T11:07:35.509Z,80.27
2022-11-29T11:10:26.763Z,88.43
2022-11-29T11:13:03.352Z,70.50
2022-11-29T11:15:32.722Z,64.97
2022-11-29T11:18:04.734Z,112.67
2022-11-29T11:20:39.616Z,129.43
2022-11-29T11:23:27.488Z,111.68
2022-11-29T11:26:02.925Z,151.47
2022-11-29T11:28:36.560Z,111.07
2022-11-29T11:31:09.274Z,84.90
2022-11-29T11:33:40.154Z,83.33
2022-11-29T11:36:14.495Z,63.90
2022-11-29T11:38:51.318Z,68.97
2022-11-29T11:41:45.490Z,74.07
2022-11-29T11:44:47.958Z,63.50
2022-11-29T11:47:21.593Z,47.63
2022-11-29T11:50:04.169Z,52.60
2022-11-29T11:52:42.808Z,50.20
2022-11-29T11:55:33.192Z,57.93
2022-11-29T11:58:10.252Z,49.27
2022-11-29T12:01:03.832Z,54.90
2022-11-29T12:03:45.675Z,54.87
2022-11-29T12:06:39.410Z,71.40
2022-11-29T12:09:22.788Z,58.40
2022-11-29T12:12:04.255Z,63.57
2022-11-29T12:14:51.999Z,62.10
2022-11-29T12:17:34.919Z,68.37
2022-11-29T12:20:18.924Z,54.30
2022-11-29T12:23:05.545Z,58.27
2022-11-29T12:25:44.654Z,60.17
2022-11-29T12:28:20.079Z,42.47
2022-11-29T12:31:03.307Z,53.00
2022-11-29T12:33:46.193Z,56.60
2022-11-29T12:36:32.493Z,47.97
2022-11-29T12:39:19.836Z,49.60
2022-11-29T12:41:57.429Z,50.07
2022-11-29T12:44:46.015Z,42.13
2022-11-29T12:47:37.408Z,43.40
2022-11-29T12:50:29.473Z,48.17
2022-11-29T12:53:21.329Z,58.87
2022-11-29T12:56:13.597Z,55.95
2022-11-29T12:58:59.096Z,52.10
2022-11-29T13:01:41.632Z,52.95
2022-11-29T13:04:25.504Z,59.20
2022-11-29T13:07:04.790Z,44.00
2022-11-29T13:10:20.078Z,47.37
2022-11-29T13:12:53.835Z,49.33
2022-11-29T13:15:31.676Z,44.77
2022-11-29T13:18:11.035Z,44.40
2022-11-29T13:20:48.294Z,44.50
2022-11-29T13:23:46.081Z,40.90
2022-11-29T13:26:17.006Z,51.13
2022-11-29T13:28:48.290Z,42.83
2022-11-29T13:31:20.580Z,46.40
2022-11-29T13:34:01.249Z,52.73
2022-11-29T13:36:44.499Z,50.83
2022-11-29T13:39:30.609Z,67.10
2022-11-29T13:44:47.168Z,74.63
2022-11-29T13:47:19.321Z,107.17
2022-11-29T13:49:58.917Z,138.03
2022-11-29T13:52:38.747Z,90.77
2022-11-29T13:55:22.946Z,93.87
2022-11-29T13:58:15.452Z,74.03
2022-11-29T14:00:51.637Z,74.10
2022-11-29T14:03:30.884Z,96.97
2022-11-29T14:06:20.997Z,85.10
2022-11-29T14:09:25.277Z,88.97
2022-11-29T14:12:04.484Z,95.00
2022-11-29T14:14:48.173Z,80.83
2022-11-29T14:17:45.193Z,84.03
2022-11-29T14:20:55.754Z,109.67
2022-11-29T14:23:40.607Z,68.97
2022-11-29T14:26:29.893Z,80.47
2022-11-29T14:29:01.419Z,85.43
2022-11-29T14:31:54.968Z,106.03
2022-11-29T14:34:41.716Z,90.60
2022-11-29T14:37:34.699Z,108.43
2022-11-29T14:40:20.683Z,99.20
2022-11-29T14:42:50.265Z,107.63
2022-11-29T14:45:26.192Z,95.00
2022-11-29T14:50:34.647Z,119.63
2022-11-29T14:53:05.534Z,100.33
2022-11-29T14:55:37.528Z,117.80
2022-11-29T14:58:18.806Z,107.97
2022-11-29T15:01:09.631Z,115.30
2022-11-29T15:03:48.969Z,106.10
2022-11-29T15:06:26.414Z,116.00
2022-11-29T15:09:04.231Z,94.47
2022-11-29T15:11:46.901Z,102.73
2022-11-29T15:14:26.640Z,122.43
2022-11-29T15:17:16.815Z,107.60
2022-11-29T15:20:06.497Z,108.50
2022-11-29T15:22:49.266Z,108.77
2022-11-29T15:25:22.088Z,95.50
2022-11-29T15:27:52.434Z,105.97
2022-11-29T15:30:29.395Z,106.63
2022-11-29T15:32:59.800Z,103.13
2022-11-29T15:35:28.272Z,112.17
2022-11-29T15:37:57.268Z,125.80
2022-11-29T15:40:35.105Z,103.40
2022-11-29T15:43:25.690Z,107.50
2022-11-29T15:45:56.803Z,99.77
2022-11-29T15:48:27.254Z,117.03
2022-11-29T15:51:04.767Z,99.73
2022-11-29T15:53:40.694Z,127.83
2022-11-29T15:56:17.599Z,147.33
2022-11-29T15:58:48.987Z,140.27
2022-11-29T16:01:21.485Z,172.77
2022-11-29T16:03:55.580Z,138.57
2022-11-29T16:06:29.911Z,146.57
2022-11-29T16:08:58.979Z,160.57
2022-11-29T16:11:31.782Z,152.77
2022-11-29T16:14:18.390Z,130.63
2022-11-29T16:16:52.361Z,127.60
2022-11-29T16:19:30.139Z,152.27
2022-11-29T16:22:02.060Z,137.63
2022-11-29T16:24:33.985Z,133.60
2022-11-29T16:27:05.175Z,124.90
2022-11-29T16:29:36.985Z,129.30
2022-11-29T16:32:26.919Z,101.93
2022-11-29T16:35:06.113Z,109.37
2022-11-29T16:37:41.128Z,109.30
2022-11-29T16:40:22.751Z,119.73
2022-11-29T16:43:18.374Z,108.83
2022-11-29T16:45:46.855Z,112.22
2022-11-29T16:48:31.068Z,110.47
2022-11-29T16:51:23.601Z,114.97
2022-11-29T16:53:53.532Z,109.10
2022-11-29T16:56:24.710Z,111.10
2022-11-29T16:59:25.366Z,106.10
2022-11-29T17:01:45.502Z,100.27
2022-11-29T17:04:13.387Z,97.53
2022-11-29T17:06:53.519Z,97.10
2022-11-29T17:12:53.965Z,122.13
2022-11-29T17:15:23.248Z,100.97
2022-11-29T17:17:50.926Z,101.23
2022-11-29T17:20:18.701Z,113.80
2022-11-29T17:22:46.756Z,100.47
2022-11-29T17:25:14.514Z,105.83
2022-11-29T17:27:42.274Z,106.27
2022-11-29T17:30:11.482Z,96.40
2022-11-29T17:32:40.646Z,112.67
2022-11-29T17:35:09.269Z,114.17
2022-11-29T17:37:37.149Z,122.13
2022-11-29T17:40:06.527Z,115.60
2022-11-29T17:42:38.036Z,129.73
2022-11-29T17:45:07.437Z,121.53
2022-11-29T17:47:35.185Z,143.20
2022-11-29T17:50:05.874Z,126.40
2022-11-29T17:52:33.689Z,145.37
2022-11-29T17:55:01.540Z,149.00
2022-11-29T17:57:29.257Z,157.70
2022-11-29T17:59:57.054Z,147.40
2022-11-29T18:02:24.824Z,128.73
2022-11-29T18:04:52.655Z,149.17
2022-11-29T18:07:21.753Z,158.23
2022-11-29T18:09:49.670Z,169.93
2022-11-29T18:12:17.550Z,140.83
2022-11-29T18:14:45.314Z,172.50
2022-11-29T18:17:13.072Z,165.40
2022-11-29T18:19:40.828Z,155.17
2022-11-29T18:22:08.795Z,165.57
2022-11-29T18:24:37.904Z,159.80
2022-11-29T18:27:05.621Z,151.27
2022-11-29T18:29:45.585Z,152.57
2022-11-29T18:32:13.474Z,183.07
2022-11-29T18:34:41.217Z,160.50
2022-11-29T18:37:15.330Z,154.00
2022-11-29T18:39:48.010Z,158.30
2022-11-29T18:42:15.936Z,143.77
2022-11-29T18:44:44.005Z,227.57
2022-11-29T18:47:12.098Z,161.93
2022-11-29T18:49:39.797Z,168.33
2022-11-29T18:52:07.884Z,201.33
2022-11-29T18:54:35.692Z,172.43
2022-11-29T18:57:04.866Z,151.40
2022-11-29T18:59:32.671Z,142.63
2022-11-29T19:02:00.493Z,142.53
2022-11-29T19:04:28.299Z,164.67
2022-11-29T19:06:57.689Z,187.27
2022-11-29T19:09:25.775Z,140.70
2022-11-29T19:11:53.801Z,129.37
2022-11-29T19:14:22.943Z,132.00
2022-11-29T19:16:51.130Z,133.97
2022-11-29T19:19:19.263Z,130.17
2022-11-29T19:21:47.916Z,129.43
2022-11-29T19:24:18.182Z,173.73
2022-11-29T19:26:49.547Z,136.70
2022-11-29T19:29:17.497Z,146.80
2022-11-29T19:31:46.659Z,238.70
2022-11-29T19:34:14.530Z,335.50
2022-11-29T19:36:43.399Z,243.90
2022-11-29T19:39:15.265Z,120.67
2022-11-29T19:41:46.031Z,123.23
2022-11-29T19:44:14.371Z,111.43
2022-11-29T19:46:46.979Z,125.23
2022-11-29T19:49:15.656Z,127.10
2022-11-29T19:51:43.598Z,151.37
2022-11-29T19:54:12.695Z,127.63
2022-11-29T19:56:40.579Z,138.70
2022-11-29T19:59:08.738Z,127.00
2022-11-29T20:01:41.507Z,133.27
2022-11-29T20:04:13.897Z,137.00
2022-11-29T20:06:43.079Z,141.27
2022-11-29T20:09:13.683Z,132.17
2022-11-29T20:11:41.556Z,137.80
2022-11-29T20:14:12.387Z,121.17
2022-11-29T20:16:41.223Z,137.90
2022-11-29T20:19:13.170Z,119.20
2022-11-29T20:21:44.019Z,142.80
2022-11-29T20:24:14.290Z,138.07
2022-11-29T20:26:46.555Z,126.20
2022-11-29T20:29:16.017Z,127.77
2022-11-29T20:31:50.295Z,140.60
2022-11-29T20:34:20.956Z,134.98
2022-11-29T20:37:23.306Z,122.17
2022-11-29T20:39:59.709Z,130.80
2022-11-29T20:42:50.125Z,132.13
2022-11-29T20:45:18.803Z,143.13
2022-11-29T20:47:53.205Z,135.07
2022-11-29T20:50:26.709Z,120.43
2022-11-29T20:53:15.008Z,136.90
2022-11-29T20:55:47.985Z,127.20
2022-11-29T20:58:18.258Z,119.80
2022-11-29T21:00:46.590Z,114.77
2022-11-29T21:03:15.435Z,133.47
2022-11-29T21:05:45.326Z,96.60
2022-11-29T21:08:14.509Z,69.13
2022-11-29T21:10:42.528Z,55.10
2022-11-29T21:13:13.405Z,33.33
2022-11-29T21:15:42.341Z,41.33
2022-11-29T21:18:21.247Z,34.37
2022-11-29T21:21:03.485Z,35.40
2022-11-29T21:23:46.345Z,42.10
2022-11-29T21:26:20.457Z,31.80
2022-11-29T21:28:59.662Z,40.37
2022-11-29T21:31:28.377Z,44.07
2022-11-29T21:33:56.738Z,28.47
2022-11-29T21:36:25.864Z,34.60
2022-11-29T21:38:55.209Z,42.47
2022-11-29T21:41:23.464Z,48.00
2022-11-29T21:44:06.219Z,44.37
2022-11-29T21:46:36.097Z,33.57
2022-11-29T21:49:04.662Z,46.67
2022-11-29T21:51:33.914Z,38.40
2022-11-29T21:54:02.442Z,35.87
2022-11-29T21:56:30.407Z,33.87
2022-11-29T21:58:58.244Z,34.17
2022-11-29T22:01:27.561Z,38.27
2022-11-29T22:04:08.712Z,33.33
2022-11-29T22:06:41.520Z,39.07
2022-11-29T22:09:09.683Z,16.70
2022-11-29T22:11:37.408Z,37.27
2022-11-29T22:14:15.232Z,21.17
2022-11-29T22:16:46.001Z,36.00
2022-11-29T22:19:16.452Z,40.83
2022-11-29T22:21:48.692Z,40.83
2022-11-29T22:24:20.677Z,26.63
2022-11-29T22:26:49.973Z,45.17
2022-11-29T22:29:19.217Z,45.27
2022-11-29T22:31:49.762Z,40.27
2022-11-29T22:34:17.638Z,39.70
2022-11-29T22:36:46.854Z,35.13
2022-11-29T22:39:14.913Z,35.03
2022-11-29T22:48:38.936Z,24.63
2022-11-29T22:51:09.806Z,31.17
2022-11-29T22:53:42.205Z,35.07
2022-11-29T22:56:11.810Z,38.03
2022-11-29T22:58:39.601Z,34.77
2022-11-29T23:01:10.258Z,30.77
2022-11-29T23:03:40.505Z,20.43
2022-11-29T23:06:11.537Z,26.73
2022-11-29T23:08:42.712Z,21.47
2022-11-29T23:11:13.388Z,24.67
2022-11-29T23:13:42.979Z,24.27
2022-11-29T23:16:13.853Z,28.90
2022-11-29T23:18:42.508Z,27.20
2022-11-29T23:21:14.375Z,20.30
2022-11-29T23:23:44.209Z,31.10
2022-11-29T23:26:19.711Z,31.00
2022-11-29T23:28:48.938Z,18.95
2022-11-29T23:31:17.428Z,28.77
2022-11-29T23:33:45.425Z,30.97
2022-11-29T23:36:15.231Z,29.60
2022-11-29T23:38:44.874Z,19.37
2022-11-29T23:41:13.003Z,29.73
2022-11-29T23:43:42.014Z,29.47
2022-11-29T23:46:14.656Z,27.23
2022-11-29T23:49:14.464Z,23.37
2022-11-29T23:58:29.266Z,16.97
